Monday, October 21, 2019, 9:03 PM EDT
Back to Local

KPBG, Plattsburgh International Airport

Location: Plattsburgh, NY, United States Lat: 44.65
Local Time: 9:03 PM EDT ( 1:03 GMT) Lon: -73.467
Time Zone: US/Eastern Elev: 239 ft

Show me the last for .
Show Coded

Time T Td Feel RH Dir Speed Gust Alt SLP Vis Weather Sky Remarks
2019-10-21 19:53 45 42 - 89 - Calm - 30.13 30.14 10 CLR 6-hr Min Temp (8pm): 44.1°F
6-hr Max Temp (8pm): 60.1°F
2019-10-21 18:53 49 45 - 86 - Calm - 30.14 30.15 10 CLR None
2019-10-21 17:53 53 44 - 71 - Calm - 30.13 30.14 10 CLR None
2019-10-21 16:53 59 44 - 57 70° 3 - 30.13 30.14 10 CLR None
2019-10-21 15:53 60 43 - 53 40° 7 - 30.11 30.12 10 CLR None
2019-10-21 10:53 52 45 - 76 - Calm - 30.17 30.17 10 CLR None
2019-10-21 09:53 48 43 - 82 - Calm - 30.15 30.16 10 CLR None
2019-10-21 08:53 40 38 - 92 - Calm - 30.14 30.15 10 CLR None
2019-10-21 07:53 33 32 - 95 - Calm - 30.14 30.14 8 CLR 6-hr Min Temp (8am): 30.9°F
6-hr Max Temp (8am): 37.0°F
2019-10-21 07:40 32 32 - 100 - Calm - 30.13 - 3 BR CLR None
2019-10-21 07:35 32 31 - 95 - Calm - 30.13 - 1 BR CLR None
2019-10-21 06:53 33 32 - 95 - Calm - 30.13 30.14 10 CLR None
2019-10-21 05:53 33 32 - 95 - Calm - 30.11 30.12 8 CLR None
2019-10-21 04:53 33 32 - 95 - Calm - 30.09 30.10 9 CLR None
2019-10-21 03:53 35 33 - 92 - Calm - 30.07 30.07 3 BR CLR None
2019-10-21 02:53 36 35 - 96 - Calm - 30.07 30.07 10 CLR None
2019-10-21 01:53 36 35 33 96 210° 3 - 30.05 30.05 4 BR CLR 6-hr Min Temp (2am): 35.1°F
6-hr Max Temp (2am): 46.0°F
2019-10-21 01:50 36 36 - 100 - Calm - 30.05 - 2 BR CLR None
2019-10-21 00:53 37 36 - 95 - Calm - 30.04 30.04 10 CLR 24-hr Min Temp (1am): 28.9°F
24-hr Max Temp (1am): 53.1°F
2019-10-21 00:39 36 35 - 96 - Calm - 30.04 - 4 BR CLR None
2019-10-21 00:18 37 36 - 95 - Calm - 30.03 - 2 BR CLR None
2019-10-20 23:53 37 36 - 95 - Calm - 30.03 30.03 8 FEW003 None
2019-10-20 23:50 37 37 - 100 - Calm - 30.03 - 8 FEW003 None
2019-10-20 23:40 38 37 - 96 - Calm - 30.02 - 2 BR FEW003 Variable visibility
2019-10-20 23:33 38 37 - 96 - Calm - 30.02 - 1 BR CLR Variable visibility
2019-10-20 22:53 38 37 - 96 - Calm - 30.02 30.02 3 BR CLR None
2019-10-20 22:29 39 37 - 92 - Calm - 30.02 - 4 BR CLR None
2019-10-20 22:21 39 38 - 95 - Calm - 30.02 - 2 BR CLR Variable visibility
2019-10-20 21:53 40 39 - 96 - Calm - 30.01 30.02 8 CLR None

Support USWX by starting your Amazon purchase here.